Weather, Runways
& NOTAMs

CYYZ - Toronto-Lester B. Pearson International
CYYZ 191900Z VRB02KT 10SM SCT011 BKN018 BKN042 03/01 A2982 RMK SC3SC2SC2 SLP105
Suggested Runways: Departures: 23, Arrivals: 24R
CYOW - Ottawa Macdonald-Cartier International
CYOW 191900Z 25003KT 210V270 15SM FEW035 BKN070 01/M05 A2981 RMK SC1AC4 SLP103
Suggested Runway: 25
CYTZ - Billy Bishop Toronto City
CYTZ 191900Z AUTO 08007KT 9SM SCT017 OVC025 03/M00 A2983 RMK SLP104
Suggested Runway: 08
CYXU - London International
CYXU 191900Z 09003KT 10SM FEW015 BKN032 BKN100 BKN200 06/02 A2979 RMK CF1SC6AC1CI1 CF TR CI TR CU ASOCTD SLP097
Suggested Runway: 15
CYHM - John C. Munro Hamilton International
CYHM 191900Z 05004KT 8SM SCT015 OVC024 04/02 A2981 RMK SC3SC5 SLP103
Suggested Runway: 12
CYKF - Region of Waterloo International
CYKF 191946Z AUTO 16002KT 5SM BR OVC007 02/02 A2981 RMK SLP105
Suggested Runway: 08
CYAM - Sault Ste. Marie
CYAM 191900Z VRB02KT 2SM -DZ BR BKN006 OVC013 03/02 A2979 RMK FG1ST5SC2 VIS VRB 11/2-21/2 CIG VRB 3-9 SLP096
Suggested Runway: 30
CYTR - Canadian Forces Base Trenton
CYTR 191900Z 19005KT 15SM BKN067 03/M05 A2983 RMK AC6 SLP106
Suggested Runway: 24
CYOO - Toronto/Oshawa Executive
CYOO 191900Z AUTO 00000KT 9SM BKN014 OVC020 03/M01 A2983 RMK SLP108
Suggested Runway: 30

NOTAMs